This is the latest recevied weather packets stored in our database for station/object KC9ZAR-13. If no packets are shown the sender has not sent any weather packets the latest 10 day(s).
| Time | Temp. | Humidity | Pressure | Rain* | Wind** | Luminosity | Snow |
|---|---|---|---|---|---|---|---|
| 1777713904 | 7.78° C | 84% | 1015.4 hPa | 0 mm | - | 0 W/m² | - |
| 1777712104 | 6.67° C | 88% | 1015.4 hPa | 0 mm | - | 0 W/m² | - |
| 1777711205 | 6.11° C | 89% | 1015.3 hPa | 0 mm | - | 0 W/m² | - |
| 1777710005 | 6.11° C | 88% | 1015.4 hPa | 0 mm | - | 0 W/m² | - |
| 1777708805 | 6.11° C | 88% | 1015.3 hPa | 0 mm | - | 0 W/m² | - |
| 1777707905 | 6.11° C | 89% | 1015.2 hPa | 0 mm | - | 0 W/m² | - |
| 1777704605 | 6.11° C | 87% | 1014.9 hPa | 0 mm | - | 0 W/m² | - |
| 1777702805 | 6.67° C | 87% | 1015.3 hPa | 0 mm | - | 0 W/m² | - |
| 1777698305 | 6.67° C | 86% | 1015.5 hPa | 0 mm | - | 0 W/m² | - |
| 1777698004 | 6.67° C | 86% | 1015.7 hPa | 0 mm | - | 0 W/m² | - |
| 1777697104 | 7.22° C | 85% | 1015.6 hPa | 0 mm | - | 0 W/m² | - |
| 1777695006 | 7.22° C | 83% | 1015.8 hPa | 0 mm | - | 0 W/m² | - |
| 1777694105 | 7.78° C | 82% | 1015.9 hPa | 0 mm | - | 0 W/m² | - |
| 1777693504 | 7.78° C | 81% | 1016 hPa | 0 mm | - | 0 W/m² | - |
| 1777690205 | 8.89° C | 76% | 1016 hPa | 0 mm | - | 0 W/m² | - |
| 1777688405 | 9.44° C | 74% | 1015.7 hPa | 0 mm | - | 0 W/m² | - |
| 1777685104 | 11.11° C | 66% | 1015 hPa | 0 mm | - | 0 W/m² | - |
| 1777684805 | 11.67° C | 65% | 1014.8 hPa | 0 mm | - | 0 W/m² | - |
| 1777684204 | 11.67° C | 61% | 1014.8 hPa | 0 mm | - | 0 W/m² | - |
| 1777682705 | 12.78° C | 56% | 1014.3 hPa | 0 mm | - | 0 W/m² | - |
| 1777677905 | 15.56° C | 46% | 1013.3 hPa | 0 mm | - | 0 W/m² | - |
| 1777677305 | 15.56° C | 46% | 1013.4 hPa | 0 mm | - | 0 W/m² | - |
| 1777676106 | 15.56° C | 47% | 1013.8 hPa | 0 mm | - | 0 W/m² | - |
| 1777673405 | 15° C | 48% | 1013.8 hPa | 0 mm | - | 0 W/m² | - |
| 1777672206 | 16.11° C | 48% | 1013.8 hPa | 0 mm | - | 0 W/m² | - |
* Rain latest hour (hover to see other rain measurements)
** Current wind speed in m/s (hover to see current wind gust speed)